Time;durP1;ratioP1;P1;durP2;ratioP2;P2;SDS_P1;SDS_P2;PMS_P1;PMS_P2;Temp;Humidity;BMP_temperature;BMP_pressure;BME280_temperature;BME280_humidity;BME280_pressure;Samples;Min_cycle;Max_cycle;Signal;HPM_P1;HPM_P2
2023/10/18 00:02:54;;;;;;;17.38;15.73;;;;;;;;;;5070512;28;20400;-82
2023/10/18 00:05:21;;;;;;;17.55;15.48;;;;;;;;;;5070918;28;20396;-82
2023/10/18 00:07:48;;;;;;;16.70;15.20;;;;;;;;;;5070218;28;20855;-81
2023/10/18 00:10:17;;;;;;;17.83;15.93;;;;;;;;;;5053038;28;20386;-82
2023/10/18 00:12:44;;;;;;;16.80;15.10;;;;;;;;;;5070650;28;20377;-82
2023/10/18 00:15:11;;;;;;;16.75;15.15;;;;;;;;;;5070107;28;20389;-82
2023/10/18 00:17:38;;;;;;;16.38;14.80;;;;;;;;;;5070266;28;20421;-83
2023/10/18 00:20:13;;;;;;;16.15;14.65;;;;;;;;;;5070118;28;20874;-82
2023/10/18 00:22:40;;;;;;;17.20;15.50;;;;;;;;;;5069414;28;20390;-81
2023/10/18 00:25:06;;;;;;;16.40;14.85;;;;;;;;;;5070099;28;20381;-82
2023/10/18 00:27:33;;;;;;;16.25;14.75;;;;;;;;;;5069713;28;20388;-82
2023/10/18 00:29:59;;;;;;;16.10;14.50;;;;;;;;;;5052501;28;20404;-82
2023/10/18 00:32:26;;;;;;;16.23;14.73;;;;;;;;;;5069752;28;20401;-82
2023/10/18 00:34:54;;;;;;;16.40;15.00;;;;;;;;;;5069937;28;20381;-82
2023/10/18 00:37:21;;;;;;;16.07;14.63;;;;;;;;;;5069952;28;20425;-82
2023/10/18 00:39:47;;;;;;;17.90;16.20;;;;;;;;;;5069284;28;20410;-82
2023/10/18 00:42:25;;;;;;;17.30;15.60;;;;;;;;;;5073349;28;20409;-82
2023/10/18 00:44:55;;;;;;;16.05;14.52;;;;;;;;;;5060479;28;20853;-82
2023/10/18 00:47:22;;;;;;;16.20;14.70;;;;;;;;;;5073341;28;20389;-82
2023/10/18 00:49:52;;;;;;;16.85;15.25;;;;;;;;;;5072837;28;20392;-82
2023/10/18 00:52:19;;;;;;;16.13;14.73;;;;;;;;;;5073711;28;20407;-82
2023/10/18 00:54:45;;;;;;;16.33;14.85;;;;;;;;;;5073548;28;20389;-81
2023/10/18 00:57:12;;;;;;;16.75;15.05;;;;;;;;;;5056206;28;20512;-82
2023/10/18 00:59:38;;;;;;;17.13;15.43;;;;;;;;;;5072770;28;20362;-82
2023/10/18 01:02:11;;;;;;;17.20;15.50;;;;;;;;;;5072362;28;20376;-83
2023/10/18 01:04:37;;;;;;;15.38;14.00;;;;;;;;;;5054488;28;20419;-81
2023/10/18 01:07:16;;;;;;;17.25;15.65;;;;;;;;;;5072769;28;20385;-82
2023/10/18 01:09:49;;;;;;;16.15;14.60;;;;;;;;;;5071998;28;20404;-82
2023/10/18 01:12:15;;;;;;;16.42;14.93;;;;;;;;;;5072107;28;20867;-82
2023/10/18 01:14:42;;;;;;;15.93;14.43;;;;;;;;;;5054724;28;20388;-81
2023/10/18 01:17:08;;;;;;;15.82;14.43;;;;;;;;;;5055192;28;20428;-82
2023/10/18 01:19:35;;;;;;;15.88;14.38;;;;;;;;;;5073236;28;20387;-82
2023/10/18 01:22:02;;;;;;;16.27;14.63;;;;;;;;;;5072664;28;20408;-82
2023/10/18 01:24:34;;;;;;;15.98;14.45;;;;;;;;;;5072687;28;20381;-82
2023/10/18 01:27:00;;;;;;;16.40;14.75;;;;;;;;;;5071930;28;20411;-81
2023/10/18 01:29:26;;;;;;;15.57;14.18;;;;;;;;;;5072292;28;20556;-82
2023/10/18 01:31:55;;;;;;;17.35;15.65;;;;;;;;;;5072359;28;20392;-82
2023/10/18 01:34:22;;;;;;;16.30;14.70;;;;;;;;;;5073084;28;20404;-82
2023/10/18 01:36:49;;;;;;;16.40;14.77;;;;;;;;;;5071668;28;20516;-81
2023/10/18 01:39:21;;;;;;;17.15;15.60;;;;;;;;;;5072035;28;20386;-82
2023/10/18 01:41:51;;;;;;;16.70;15.02;;;;;;;;;;5072197;28;20841;-81
2023/10/18 01:44:33;;;;;;;17.02;15.45;;;;;;;;;;5070356;28;20409;-82
2023/10/18 01:47:05;;;;;;;16.40;14.88;;;;;;;;;;5072389;28;20464;-82
2023/10/18 01:49:31;;;;;;;17.05;15.38;;;;;;;;;;5072104;28;20401;-82
2023/10/18 01:51:59;;;;;;;17.20;15.55;;;;;;;;;;5072397;28;20392;-81
2023/10/18 01:54:25;;;;;;;16.30;14.80;;;;;;;;;;5071996;28;20413;-82
2023/10/18 01:56:53;;;;;;;16.67;15.07;;;;;;;;;;5072407;28;20439;-82
2023/10/18 01:59:19;;;;;;;17.02;15.43;;;;;;;;;;5072106;28;20380;-81
2023/10/18 02:01:51;;;;;;;16.50;14.90;;;;;;;;;;5070973;28;20382;-82
2023/10/18 02:04:27;;;;;;;15.73;14.32;;;;;;;;;;5071578;28;20381;-82
2023/10/18 02:07:02;;;;;;;17.65;16.02;;;;;;;;;;5071689;28;20412;-82
2023/10/18 02:09:47;;;;;;;17.15;15.45;;;;;;;;;;5072194;28;20397;-82
2023/10/18 02:12:17;;;;;;;17.92;16.23;;;;;;;;;;5054820;28;20382;-82
2023/10/18 02:14:42;;;;;;;16.88;15.27;;;;;;;;;;5071582;28;20435;-82
2023/10/18 02:17:09;;;;;;;18.33;16.63;;;;;;;;;;5053275;28;20397;-82
2023/10/18 02:19:37;;;;;;;18.02;16.23;;;;;;;;;;5071343;28;20396;-81
2023/10/18 02:22:07;;;;;;;18.17;16.48;;;;;;;;;;5071178;28;20401;-82
2023/10/18 02:24:33;;;;;;;17.13;15.63;;;;;;;;;;5054815;28;20402;-82
2023/10/18 02:27:00;;;;;;;18.35;16.55;;;;;;;;;;5060541;28;20409;-82
2023/10/18 02:29:35;;;;;;;18.58;16.77;;;;;;;;;;5062382;28;20868;-81
2023/10/18 02:32:04;;;;;;;17.85;16.23;;;;;;;;;;5055165;28;20387;-81
2023/10/18 02:34:33;;;;;;;18.38;16.48;;;;;;;;;;5068749;28;20400;-81
2023/10/18 02:37:01;;;;;;;19.00;17.05;;;;;;;;;;5067905;28;20401;-81
2023/10/18 02:39:33;;;;;;;19.38;17.38;;;;;;;;;;5070945;28;20386;-81
2023/10/18 02:41:59;;;;;;;18.63;16.80;;;;;;;;;;5071121;28;20462;-82
2023/10/18 02:44:28;;;;;;;18.77;16.92;;;;;;;;;;5070759;28;20400;-82
2023/10/18 02:47:01;;;;;;;18.73;16.83;;;;;;;;;;5069902;28;20417;-82
2023/10/18 02:49:28;;;;;;;18.73;16.92;;;;;;;;;;5071536;28;20393;-81
2023/10/18 02:51:56;;;;;;;19.07;17.17;;;;;;;;;;5071046;28;20382;-82
2023/10/18 02:54:24;;;;;;;18.20;16.40;;;;;;;;;;5070981;28;20393;-82
2023/10/18 02:56:50;;;;;;;17.63;15.93;;;;;;;;;;5070260;28;20460;-82
2023/10/18 02:59:27;;;;;;;18.42;16.63;;;;;;;;;;5068283;28;20397;-82
2023/10/18 03:01:57;;;;;;;18.58;16.67;;;;;;;;;;5051641;28;20373;-82
2023/10/18 03:04:29;;;;;;;19.20;17.10;;;;;;;;;;5052631;28;20405;-81
2023/10/18 03:06:55;;;;;;;19.45;17.48;;;;;;;;;;5052430;28;20394;-82
2023/10/18 03:12:01;;;;;;;18.65;16.75;;;;;;;;;;5069644;28;20416;-82
2023/10/18 03:14:39;;;;;;;19.73;17.73;;;;;;;;;;5036518;28;20385;-82
2023/10/18 03:19:42;;;;;;;18.20;16.30;;;;;;;;;;5064023;28;20381;-82
2023/10/18 03:22:09;;;;;;;19.23;17.30;;;;;;;;;;5051989;28;20393;-82
2023/10/18 03:24:37;;;;;;;18.60;16.70;;;;;;;;;;5070656;28;20389;-82
2023/10/18 03:27:08;;;;;;;19.00;17.17;;;;;;;;;;5069592;28;20412;-81
2023/10/18 03:29:37;;;;;;;18.35;16.50;;;;;;;;;;5069837;28;20417;-82
2023/10/18 03:32:06;;;;;;;18.73;16.50;;;;;;;;;;5069627;28;20766;-82
2023/10/18 03:34:35;;;;;;;18.63;16.88;;;;;;;;;;5070023;28;20397;-82
2023/10/18 03:37:04;;;;;;;19.13;17.13;;;;;;;;;;5070639;28;20436;-81
2023/10/18 03:39:30;;;;;;;18.60;16.77;;;;;;;;;;5069460;28;20842;-82
2023/10/18 03:41:58;;;;;;;19.27;17.37;;;;;;;;;;5070656;28;20394;-82
2023/10/18 03:44:27;;;;;;;19.42;17.42;;;;;;;;;;5070114;28;20393;-82
2023/10/18 03:47:11;;;;;;;20.88;18.77;;;;;;;;;;5070048;28;20373;-82
2023/10/18 03:49:38;;;;;;;19.33;17.53;;;;;;;;;;5069868;28;20392;-81
2023/10/18 03:57:37;;;;;;;21.15;18.75;;;;;;;;;;5069299;28;20878;-81
2023/10/18 04:00:28;;;;;;;19.95;17.90;;;;;;;;;;5068230;28;20894;-83
2023/10/18 04:02:52;;;;;;;20.92;18.60;;;;;;;;;;5069739;28;20396;-82
2023/10/18 04:06:03;;;;;;;20.58;18.48;;;;;;;;;;5071468;28;20932;-82
2023/10/18 04:08:10;;;;;;;21.90;19.55;;;;;;;;;;5060472;28;20382;-81
2023/10/18 04:10:37;;;;;;;20.88;18.77;;;;;;;;;;5072279;28;20843;-82
2023/10/18 04:13:11;;;;;;;21.83;19.48;;;;;;;;;;5071829;28;20405;-82
2023/10/18 04:15:37;;;;;;;22.53;19.93;;;;;;;;;;5074818;28;20484;-82
2023/10/18 04:20:40;;;;;;;21.30;19.10;;;;;;;;;;5075259;28;20376;-82
2023/10/18 04:23:14;;;;;;;20.27;18.20;;;;;;;;;;5074011;28;20416;-82
2023/10/18 04:25:40;;;;;;;20.33;18.23;;;;;;;;;;5073387;28;20385;-82
2023/10/18 04:28:06;;;;;;;19.93;17.97;;;;;;;;;;5056063;28;20385;-82
2023/10/18 04:30:32;;;;;;;20.15;18.02;;;;;;;;;;5042736;28;20449;-81
2023/10/18 04:33:15;;;;;;;19.43;17.43;;;;;;;;;;5073984;28;20464;-83
2023/10/18 04:35:52;;;;;;;20.05;17.92;;;;;;;;;;5073329;28;20515;-82
2023/10/18 04:38:51;;;;;;;19.38;17.38;;;;;;;;;;5071925;28;20489;-80
2023/10/18 04:43:50;;;;;;;19.77;17.77;;;;;;;;;;5072295;28;20381;-82
2023/10/18 04:46:18;;;;;;;19.63;17.63;;;;;;;;;;5072777;28;20400;-82
2023/10/18 04:51:33;;;;;;;20.33;18.23;;;;;;;;;;5071762;28;20449;-82
2023/10/18 04:54:11;;;;;;;18.98;17.27;;;;;;;;;;5073470;28;20390;-82
2023/10/18 04:56:46;;;;;;;19.42;17.38;;;;;;;;;;5072677;28;20405;-82
2023/10/18 05:04:24;;;;;;;19.17;17.30;;;;;;;;;;5071356;28;20413;-80
2023/10/18 05:06:58;;;;;;;19.63;17.73;;;;;;;;;;5057681;28;20382;-82
2023/10/18 05:09:56;;;;;;;19.70;17.80;;;;;;;;;;5071398;28;20393;-82
2023/10/18 05:14:50;;;;;;;20.52;18.42;;;;;;;;;;5073063;28;20465;-83
2023/10/18 05:17:23;;;;;;;20.80;18.60;;;;;;;;;;5073102;28;20413;-82
2023/10/18 05:19:50;;;;;;;19.60;17.60;;;;;;;;;;5068804;28;20395;-82
2023/10/18 05:22:19;;;;;;;20.25;18.13;;;;;;;;;;5053589;28;20378;-81
2023/10/18 05:24:47;;;;;;;20.13;18.23;;;;;;;;;;5071637;28;20366;-83
2023/10/18 05:27:38;;;;;;;20.67;18.58;;;;;;;;;;5070263;28;20389;-82
2023/10/18 05:30:08;;;;;;;21.35;19.05;;;;;;;;;;5065130;28;20393;-79
2023/10/18 05:35:12;;;;;;;20.80;18.70;;;;;;;;;;5062958;28;20389;-83
2023/10/18 05:37:41;;;;;;;21.08;18.98;;;;;;;;;;5072582;28;20412;-82
2023/10/18 05:40:45;;;;;;;21.95;19.38;;;;;;;;;;5065007;28;20387;-82
2023/10/18 05:42:53;;;;;;;21.80;19.60;;;;;;;;;;5057675;28;20404;-83
2023/10/18 05:45:19;;;;;;;21.27;18.98;;;;;;;;;;5054921;28;20394;-83
2023/10/18 05:47:48;;;;;;;21.55;19.25;;;;;;;;;;5072444;28;20435;-82
2023/10/18 05:50:14;;;;;;;21.35;18.90;;;;;;;;;;5072599;28;20404;-83
2023/10/18 05:52:44;;;;;;;21.50;19.20;;;;;;;;;;5069997;28;20401;-84
2023/10/18 05:55:10;;;;;;;19.67;17.65;;;;;;;;;;5067938;28;20397;-83
2023/10/18 05:57:37;;;;;;;21.05;18.85;;;;;;;;;;5068073;28;20413;-83
2023/10/18 06:00:20;;;;;;;21.42;19.13;;;;;;;;;;5069464;28;20453;-82
2023/10/18 06:02:46;;;;;;;21.83;19.48;;;;;;;;;;5062464;28;20379;-83
2023/10/18 06:05:13;;;;;;;21.77;19.48;;;;;;;;;;5069320;28;20392;-84
2023/10/18 06:07:39;;;;;;;20.20;18.20;;;;;;;;;;5071076;28;20441;-83
2023/10/18 06:10:17;;;;;;;21.13;18.95;;;;;;;;;;5051181;28;20396;-84
2023/10/18 06:12:46;;;;;;;21.45;19.25;;;;;;;;;;5068236;28;20385;-81
2023/10/18 06:15:30;;;;;;;19.33;17.52;;;;;;;;;;5070327;28;20396;-83
2023/10/18 06:17:57;;;;;;;19.70;17.75;;;;;;;;;;5062330;28;20448;-84
2023/10/18 06:20:30;;;;;;;19.80;17.92;;;;;;;;;;5037844;28;20403;-84
2023/10/18 06:25:48;;;;;;;18.75;16.92;;;;;;;;;;5065789;28;20882;-83
2023/10/18 06:28:20;;;;;;;19.52;17.58;;;;;;;;;;5057518;28;20390;-84
2023/10/18 06:30:49;;;;;;;20.63;18.55;;;;;;;;;;5067761;28;20404;-84
2023/10/18 06:33:18;;;;;;;20.48;18.48;;;;;;;;;;5041523;28;20807;-84
2023/10/18 06:35:53;;;;;;;21.48;19.27;;;;;;;;;;5067956;28;20396;-83
2023/10/18 06:38:22;;;;;;;19.58;17.65;;;;;;;;;;5065642;28;20417;-83
2023/10/18 06:41:00;;;;;;;19.90;18.00;;;;;;;;;;5049928;28;20396;-83
2023/10/18 06:43:27;;;;;;;18.42;16.73;;;;;;;;;;5059738;28;20398;-84
2023/10/18 06:45:54;;;;;;;19.02;17.13;;;;;;;;;;5067378;28;20767;-84
2023/10/18 06:48:26;;;;;;;18.23;16.48;;;;;;;;;;5063137;28;20381;-84
2023/10/18 06:50:57;;;;;;;17.48;15.88;;;;;;;;;;5057061;28;20853;-84
2023/10/18 06:53:25;;;;;;;18.63;16.83;;;;;;;;;;5068042;28;20413;-84
2023/10/18 06:56:08;;;;;;;19.20;17.40;;;;;;;;;;5061518;28;20386;-84
2023/10/18 07:01:13;;;;;;;20.17;18.17;;;;;;;;;;5069444;28;20901;-82
2023/10/18 07:03:42;;;;;;;18.70;16.92;;;;;;;;;;5069749;28;20411;-84
2023/10/18 07:06:18;;;;;;;19.58;17.77;;;;;;;;;;5069717;28;20437;-83
2023/10/18 07:08:51;;;;;;;20.58;18.65;;;;;;;;;;5071113;28;20396;-84
2023/10/18 07:11:17;;;;;;;20.30;18.27;;;;;;;;;;5066397;28;20553;-84
2023/10/18 07:13:47;;;;;;;20.17;18.00;;;;;;;;;;5071078;28;20382;-83
2023/10/18 07:16:16;;;;;;;20.33;18.30;;;;;;;;;;5068704;28;20381;-84
2023/10/18 07:18:45;;;;;;;19.50;17.60;;;;;;;;;;5046733;28;20385;-84
2023/10/18 07:21:24;;;;;;;20.40;18.30;;;;;;;;;;5070313;28;20389;-84
2023/10/18 07:23:53;;;;;;;22.05;19.75;;;;;;;;;;5066859;28;20385;-85
2023/10/18 07:26:21;;;;;;;21.55;19.25;;;;;;;;;;5070125;28;20393;-84
2023/10/18 07:28:49;;;;;;;21.60;19.23;;;;;;;;;;5051789;28;20397;-83
2023/10/18 07:31:17;;;;;;;21.05;18.80;;;;;;;;;;5067701;28;20389;-85
2023/10/18 07:33:44;;;;;;;21.45;19.15;;;;;;;;;;5050829;28;20397;-84
2023/10/18 07:36:11;;;;;;;23.35;20.88;;;;;;;;;;5051001;28;20397;-84
2023/10/18 07:38:39;;;;;;;20.98;18.83;;;;;;;;;;5069194;28;20393;-84
2023/10/18 07:41:07;;;;;;;22.02;19.60;;;;;;;;;;5068521;28;20413;-84
2023/10/18 07:43:35;;;;;;;22.77;19.57;;;;;;;;;;5069488;28;20392;-84
2023/10/18 07:46:06;;;;;;;22.93;19.97;;;;;;;;;;5049048;28;20952;-84
2023/10/18 07:48:32;;;;;;;24.20;20.30;;;;;;;;;;5065009;28;20877;-83
2023/10/18 07:50:58;;;;;;;22.48;20.08;;;;;;;;;;5066850;28;20399;-83
2023/10/18 07:53:24;;;;;;;23.38;20.90;;;;;;;;;;5066908;28;20924;-84
2023/10/18 07:55:56;;;;;;;22.13;19.73;;;;;;;;;;5050684;28;20411;-84
2023/10/18 07:58:26;;;;;;;22.00;19.60;;;;;;;;;;5037896;28;20430;-83
2023/10/18 08:03:28;;;;;;;20.77;18.67;;;;;;;;;;5065254;28;20389;-84
2023/10/18 08:05:56;;;;;;;20.98;18.73;;;;;;;;;;5059614;28;20388;-84
2023/10/18 08:08:25;;;;;;;21.20;18.90;;;;;;;;;;5064636;28;20439;-83
2023/10/18 08:10:55;;;;;;;20.10;18.02;;;;;;;;;;5047677;28;20417;-83
2023/10/18 08:13:31;;;;;;;20.02;17.90;;;;;;;;;;5067934;28;20483;-83
2023/10/18 08:16:01;;;;;;;19.70;17.75;;;;;;;;;;5068148;28;20384;-83
2023/10/18 08:18:44;;;;;;;18.92;17.02;;;;;;;;;;5049177;28;20409;-83
2023/10/18 08:24:08;;;;;;;19.05;17.15;;;;;;;;;;5053831;28;20443;-83
2023/10/18 08:26:45;;;;;;;18.90;17.10;;;;;;;;;;5067001;28;20373;-83
2023/10/18 08:29:12;;;;;;;18.63;16.77;;;;;;;;;;5035887;28;20393;-83
2023/10/18 08:31:38;;;;;;;18.73;16.93;;;;;;;;;;5049987;28;20405;-82
2023/10/18 08:34:05;;;;;;;18.45;16.73;;;;;;;;;;5066353;28;20484;-82
2023/10/18 08:36:32;;;;;;;17.88;16.27;;;;;;;;;;5076847;28;20406;-83
2023/10/18 08:39:01;;;;;;;18.60;16.90;;;;;;;;;;5067646;28;20413;-82
2023/10/18 08:41:32;;;;;;;18.10;16.33;;;;;;;;;;5049695;28;20381;-83
2023/10/18 08:44:05;;;;;;;18.15;16.45;;;;;;;;;;5068165;28;20405;-83
2023/10/18 08:46:36;;;;;;;18.00;16.23;;;;;;;;;;5068089;28;20393;-81
2023/10/18 08:49:03;;;;;;;18.35;16.60;;;;;;;;;;5063282;28;20409;-82
2023/10/18 08:51:29;;;;;;;19.83;17.77;;;;;;;;;;5066795;28;20385;-83
2023/10/18 08:53:56;;;;;;;18.67;16.98;;;;;;;;;;5069868;28;20374;-82
2023/10/18 08:56:32;;;;;;;19.83;17.80;;;;;;;;;;5069804;28;20378;-83
2023/10/18 08:58:58;;;;;;;19.35;17.35;;;;;;;;;;5068538;28;20412;-83
2023/10/18 09:01:25;;;;;;;24.90;21.20;;;;;;;;;;5070413;28;20461;-82
2023/10/18 09:03:51;;;;;;;22.90;20.02;;;;;;;;;;5071420;28;20385;-83
2023/10/18 09:06:30;;;;;;;21.42;19.23;;;;;;;;;;5084940;22;20424;-80
2023/10/18 09:09:35;;;;;;;21.48;18.70;;;;;;;;;;5068301;28;20378;-80
2023/10/18 09:11:51;;;;;;;19.83;17.83;;;;;;;;;;5059206;28;20388;-80
2023/10/18 09:14:17;;;;;;;19.17;17.23;;;;;;;;;;5075351;28;20382;-80
2023/10/18 09:16:46;;;;;;;19.27;17.27;;;;;;;;;;5068083;28;20409;-79
2023/10/18 09:19:12;;;;;;;18.73;16.80;;;;;;;;;;5067707;28;20401;-80
2023/10/18 09:21:44;;;;;;;17.90;16.15;;;;;;;;;;5068624;28;20382;-80
2023/10/18 09:24:10;;;;;;;17.90;16.23;;;;;;;;;;5071933;28;20453;-80
2023/10/18 09:26:40;;;;;;;17.63;16.00;;;;;;;;;;5066863;28;20395;-78
2023/10/18 09:29:08;;;;;;;18.02;16.33;;;;;;;;;;5067153;28;20377;-80
2023/10/18 09:31:34;;;;;;;18.20;16.48;;;;;;;;;;5067609;28;20397;-80
2023/10/18 09:34:07;;;;;;;17.65;16.02;;;;;;;;;;5067632;28;20387;-79
2023/10/18 09:36:43;;;;;;;17.55;15.93;;;;;;;;;;5067801;28;20402;-80
2023/10/18 09:39:09;;;;;;;18.33;16.48;;;;;;;;;;5068031;28;20381;-79
2023/10/18 09:41:39;;;;;;;18.23;16.52;;;;;;;;;;5049056;28;20443;-79
2023/10/18 09:44:06;;;;;;;19.38;17.35;;;;;;;;;;5067177;28;20461;-79
2023/10/18 09:46:33;;;;;;;18.77;16.97;;;;;;;;;;5067346;28;20522;-80
2023/10/18 09:49:00;;;;;;;19.15;17.30;;;;;;;;;;5067930;28;20400;-80
2023/10/18 09:51:26;;;;;;;19.43;17.53;;;;;;;;;;5067726;28;20464;-80
2023/10/18 09:53:53;;;;;;;18.88;17.05;;;;;;;;;;5068357;28;20449;-80
2023/10/18 09:56:24;;;;;;;19.35;17.45;;;;;;;;;;5067659;28;20382;-80
2023/10/18 09:58:51;;;;;;;18.63;16.83;;;;;;;;;;5067663;28;20393;-80
2023/10/18 10:01:26;;;;;;;19.08;17.17;;;;;;;;;;5067743;28;20374;-80
2023/10/18 10:03:53;;;;;;;20.30;18.30;;;;;;;;;;5067799;28;20900;-80
2023/10/18 10:06:28;;;;;;;18.38;16.67;;;;;;;;;;5067679;28;20408;-80
2023/10/18 10:08:56;;;;;;;17.20;15.60;;;;;;;;;;5054789;28;20389;-80
2023/10/18 10:11:22;;;;;;;19.10;17.20;;;;;;;;;;5066686;28;20456;-80
2023/10/18 10:13:49;;;;;;;18.08;16.38;;;;;;;;;;5066429;28;20385;-80
2023/10/18 10:16:18;;;;;;;18.27;16.58;;;;;;;;;;5064915;28;20481;-80
2023/10/18 10:18:47;;;;;;;18.85;16.95;;;;;;;;;;5062221;28;20397;-80
2023/10/18 10:21:16;;;;;;;18.98;17.17;;;;;;;;;;5065519;28;20408;-80
2023/10/18 10:23:42;;;;;;;17.67;15.98;;;;;;;;;;5056830;28;20419;-79
2023/10/18 10:26:16;;;;;;;18.40;16.65;;;;;;;;;;5053145;28;20378;-79
2023/10/18 10:32:05;;;;;;;18.13;16.40;;;;;;;;;;4982146;28;20393;-79
2023/10/18 10:34:36;;;;;;;18.20;16.50;;;;;;;;;;5042659;28;20447;-79
2023/10/18 10:37:16;;;;;;;19.17;17.33;;;;;;;;;;5063829;28;20412;-79
2023/10/18 10:40:14;;;;;;;18.67;16.90;;;;;;;;;;5064058;28;20389;-79
2023/10/18 10:42:43;;;;;;;20.73;18.52;;;;;;;;;;5063534;28;20414;-79
2023/10/18 10:47:45;;;;;;;19.73;17.40;;;;;;;;;;5064372;28;20453;-80
2023/10/18 10:50:32;;;;;;;18.52;16.83;;;;;;;;;;5063176;28;20385;-79
2023/10/18 10:52:59;;;;;;;18.50;16.80;;;;;;;;;;5063837;28;20392;-81
2023/10/18 10:55:25;;;;;;;17.38;15.77;;;;;;;;;;5063714;28;20408;-79
2023/10/18 10:57:51;;;;;;;17.25;15.65;;;;;;;;;;5063940;28;20406;-79
2023/10/18 11:03:24;;;;;;;16.63;15.23;;;;;;;;;;5063434;28;20384;-79
2023/10/18 11:05:53;;;;;;;16.27;14.73;;;;;;;;;;5056746;28;20388;-79
2023/10/18 11:08:19;;;;;;;16.67;15.18;;;;;;;;;;5063176;28;20874;-79
2023/10/18 11:10:46;;;;;;;16.30;14.90;;;;;;;;;;5057754;28;20408;-79
2023/10/18 11:13:13;;;;;;;16.38;14.88;;;;;;;;;;5056521;28;20401;-78
2023/10/18 11:15:42;;;;;;;17.38;15.77;;;;;;;;;;5056899;28;20473;-79
2023/10/18 11:18:22;;;;;;;16.50;15.00;;;;;;;;;;5059105;28;20417;-79
2023/10/18 11:20:49;;;;;;;15.88;14.30;;;;;;;;;;5060393;28;20384;-79
2023/10/18 11:23:15;;;;;;;15.93;14.55;;;;;;;;;;5058944;28;20751;-78
2023/10/18 11:25:45;;;;;;;16.60;15.10;;;;;;;;;;5055084;28;20399;-79
2023/10/18 11:28:21;;;;;;;15.70;14.30;;;;;;;;;;5055568;28;20432;-79
2023/10/18 11:30:49;;;;;;;16.08;14.63;;;;;;;;;;5054179;28;20758;-79
2023/10/18 11:33:18;;;;;;;15.80;14.40;;;;;;;;;;5051616;28;20423;-79
2023/10/18 11:35:48;;;;;;;14.65;13.25;;;;;;;;;;5054393;28;20387;-79
2023/10/18 11:38:19;;;;;;;14.25;13.00;;;;;;;;;;5052526;28;20417;-79
2023/10/18 11:40:51;;;;;;;13.48;12.27;;;;;;;;;;5060794;28;20397;-78
2023/10/18 11:43:25;;;;;;;14.00;12.73;;;;;;;;;;5064102;28;20384;-79
2023/10/18 11:46:05;;;;;;;14.63;13.07;;;;;;;;;;5067209;28;20465;-79
2023/10/18 11:48:35;;;;;;;13.05;11.95;;;;;;;;;;5063843;28;20389;-79
2023/10/18 11:51:02;;;;;;;13.35;12.25;;;;;;;;;;5068110;28;20380;-79
2023/10/18 11:53:28;;;;;;;13.05;11.95;;;;;;;;;;5065494;28;20385;-79
2023/10/18 11:55:55;;;;;;;12.15;11.15;;;;;;;;;;5064482;28;20381;-79
2023/10/18 11:58:26;;;;;;;12.68;11.65;;;;;;;;;;5055344;28;20422;-79
2023/10/18 12:01:01;;;;;;;11.77;10.88;;;;;;;;;;5064014;28;20461;-79
2023/10/18 12:03:27;;;;;;;11.70;10.73;;;;;;;;;;5067400;28;20394;-79
2023/10/18 12:05:57;;;;;;;12.23;11.10;;;;;;;;;;5044964;28;20400;-79
2023/10/18 12:08:23;;;;;;;12.13;11.13;;;;;;;;;;5063577;28;20385;-79
2023/10/18 12:10:49;;;;;;;11.80;10.90;;;;;;;;;;5059024;28;20999;-79
2023/10/18 12:13:20;;;;;;;11.75;10.75;;;;;;;;;;5059308;28;20393;-79
2023/10/18 12:15:45;;;;;;;11.95;10.95;;;;;;;;;;5058683;28;20877;-79
2023/10/18 12:18:14;;;;;;;12.07;10.98;;;;;;;;;;5062972;28;20425;-79
2023/10/18 12:20:43;;;;;;;11.35;10.45;;;;;;;;;;5063166;28;20417;-79
2023/10/18 12:23:10;;;;;;;11.98;10.98;;;;;;;;;;5056277;28;20442;-79
2023/10/18 12:25:42;;;;;;;11.68;10.77;;;;;;;;;;5051491;28;20409;-79
2023/10/18 12:28:19;;;;;;;12.05;10.95;;;;;;;;;;5054999;28;20391;-79
2023/10/18 12:30:51;;;;;;;15.23;13.80;;;;;;;;;;5050102;28;20741;-79
2023/10/18 12:33:25;;;;;;;12.40;11.40;;;;;;;;;;5055988;28;20386;-78
2023/10/18 12:35:51;;;;;;;12.05;10.95;;;;;;;;;;5061813;28;20411;-78
2023/10/18 12:38:30;;;;;;;12.10;11.10;;;;;;;;;;5049081;28;20451;-78
2023/10/18 12:41:00;;;;;;;11.00;10.10;;;;;;;;;;5062756;28;20374;-79
2023/10/18 12:43:27;;;;;;;11.48;10.57;;;;;;;;;;5063962;28;20386;-79
2023/10/18 12:45:53;;;;;;;11.70;10.70;;;;;;;;;;5061242;28;20770;-80
2023/10/18 12:48:23;;;;;;;12.15;11.00;;;;;;;;;;5045686;28;20453;-78
2023/10/18 12:50:52;;;;;;;10.85;10.05;;;;;;;;;;5044952;28;20385;-78
2023/10/18 12:55:57;;;;;;;11.52;10.63;;;;;;;;;;5066243;28;20409;-79
2023/10/18 12:58:30;;;;;;;11.57;10.67;;;;;;;;;;5064537;28;20509;-79
2023/10/18 13:01:05;;;;;;;12.30;11.38;;;;;;;;;;5064094;28;20381;-78
2023/10/18 13:03:34;;;;;;;12.50;11.43;;;;;;;;;;5064694;28;20389;-78
2023/10/18 13:06:00;;;;;;;13.18;12.10;;;;;;;;;;5065736;28;20389;-79
2023/10/18 13:08:27;;;;;;;13.60;12.50;;;;;;;;;;5065088;28;20406;-79
2023/10/18 13:11:44;;;;;;;12.85;11.75;;;;;;;;;;5064819;28;20925;-79
2023/10/18 13:13:44;;;;;;;13.70;12.45;;;;;;;;;;5064542;28;20386;-79
2023/10/18 13:16:14;;;;;;;13.37;12.27;;;;;;;;;;5065275;28;20392;-79
2023/10/18 13:18:41;;;;;;;16.80;15.20;;;;;;;;;;5065583;28;20424;-79
2023/10/18 13:21:09;;;;;;;14.20;12.98;;;;;;;;;;5065199;28;20394;-79
2023/10/18 13:23:36;;;;;;;12.88;11.82;;;;;;;;;;5064584;28;20389;-80
2023/10/18 13:26:04;;;;;;;13.48;12.48;;;;;;;;;;5064254;28;20389;-80
2023/10/18 13:28:34;;;;;;;13.35;12.20;;;;;;;;;;5064782;28;20386;-78
2023/10/18 13:31:04;;;;;;;11.25;10.35;;;;;;;;;;5056015;28;20385;-79
2023/10/18 13:33:33;;;;;;;12.55;11.55;;;;;;;;;;5057046;28;20401;-79
2023/10/18 13:36:01;;;;;;;11.57;10.60;;;;;;;;;;5064183;28;20377;-80
2023/10/18 13:38:28;;;;;;;11.35;10.45;;;;;;;;;;5038301;28;20420;-78
2023/10/18 13:40:54;;;;;;;11.25;10.35;;;;;;;;;;5053811;28;20381;-78
2023/10/18 13:43:24;;;;;;;11.18;10.27;;;;;;;;;;5056229;28;20382;-78
2023/10/18 13:45:56;;;;;;;11.30;10.20;;;;;;;;;;5042013;28;20449;-78
2023/10/18 13:48:24;;;;;;;12.02;11.00;;;;;;;;;;5059885;28;20400;-79
2023/10/18 13:50:53;;;;;;;12.50;11.50;;;;;;;;;;5063969;28;20396;-78
2023/10/18 13:53:21;;;;;;;12.30;11.30;;;;;;;;;;5064126;28;20891;-79
2023/10/18 13:55:47;;;;;;;13.37;12.27;;;;;;;;;;5064630;28;20424;-80
2023/10/18 13:58:13;;;;;;;14.10;12.90;;;;;;;;;;5063729;28;20783;-79
2023/10/18 14:00:40;;;;;;;12.60;11.43;;;;;;;;;;5063556;28;20393;-79
2023/10/18 14:03:07;;;;;;;13.90;12.63;;;;;;;;;;5062400;28;20390;-80
2023/10/18 14:05:40;;;;;;;14.40;13.20;;;;;;;;;;5062223;28;20823;-79
2023/10/18 14:08:28;;;;;;;13.45;12.25;;;;;;;;;;5063838;28;20445;-80
2023/10/18 14:10:56;;;;;;;15.27;14.00;;;;;;;;;;5059985;28;20563;-80
2023/10/18 14:13:23;;;;;;;14.85;13.45;;;;;;;;;;5058181;28;20974;-79
2023/10/18 14:15:52;;;;;;;15.45;14.05;;;;;;;;;;5059918;28;20405;-79
2023/10/18 14:18:18;;;;;;;16.15;14.65;;;;;;;;;;5061913;28;20418;-79
2023/10/18 14:20:50;;;;;;;15.55;14.05;;;;;;;;;;5059930;28;20435;-80
2023/10/18 14:23:19;;;;;;;15.25;13.75;;;;;;;;;;5060952;28;20378;-79
2023/10/18 14:25:45;;;;;;;15.20;13.85;;;;;;;;;;5060572;28;20389;-80
2023/10/18 14:28:12;;;;;;;21.73;19.52;;;;;;;;;;5062299;28;20389;-80
2023/10/18 14:30:39;;;;;;;18.02;16.33;;;;;;;;;;5061540;28;20388;-79
2023/10/18 14:33:05;;;;;;;16.92;15.43;;;;;;;;;;5060832;28;20389;-80
2023/10/18 14:35:32;;;;;;;15.65;14.20;;;;;;;;;;5060092;28;20888;-79
2023/10/18 14:38:06;;;;;;;17.23;15.63;;;;;;;;;;5060206;28;20466;-80
2023/10/18 14:40:34;;;;;;;16.77;15.27;;;;;;;;;;5060850;28;20413;-79
2023/10/18 14:43:01;;;;;;;16.73;15.20;;;;;;;;;;5059544;28;20482;-79
2023/10/18 14:45:32;;;;;;;17.65;15.85;;;;;;;;;;5058617;28;20382;-79
2023/10/18 14:47:58;;;;;;;17.95;16.15;;;;;;;;;;5060654;28;20388;-79
2023/10/18 14:50:26;;;;;;;17.75;16.13;;;;;;;;;;5060047;28;20389;-79
2023/10/18 14:52:52;;;;;;;17.88;16.17;;;;;;;;;;5043883;28;20417;-79
2023/10/18 14:55:18;;;;;;;23.42;21.17;;;;;;;;;;5062235;28;20408;-79
2023/10/18 14:57:44;;;;;;;17.27;15.68;;;;;;;;;;5062382;28;20413;-80
2023/10/18 15:00:11;;;;;;;16.17;14.68;;;;;;;;;;5062748;28;20445;-79
2023/10/18 15:02:40;;;;;;;16.70;15.10;;;;;;;;;;5063302;28;20385;-80
2023/10/18 15:05:09;;;;;;;16.58;14.98;;;;;;;;;;5062373;28;20437;-80
2023/10/18 15:07:37;;;;;;;15.95;14.43;;;;;;;;;;5063055;28;20393;-79
2023/10/18 15:10:06;;;;;;;15.70;14.30;;;;;;;;;;5046766;28;20749;-80
2023/10/18 15:12:32;;;;;;;16.20;14.70;;;;;;;;;;5047154;28;20387;-80
2023/10/18 15:14:58;;;;;;;16.13;14.73;;;;;;;;;;5058796;28;20400;-81
2023/10/18 15:17:25;;;;;;;16.10;14.70;;;;;;;;;;5061158;28;20475;-81
2023/10/18 15:19:52;;;;;;;16.92;15.32;;;;;;;;;;5059208;28;20735;-81
2023/10/18 15:22:18;;;;;;;16.88;15.35;;;;;;;;;;5062216;28;20728;-81
2023/10/18 15:24:44;;;;;;;16.98;15.38;;;;;;;;;;5061863;28;20388;-80